Agricola, Mississippi
Current Conditions -  °F | °C
As of 12:56 AM on Friday 31 Oct 2014 (Local Time) from KMOB Reporting Station
Clear Clear  
Wind Chill: 44°   Ceiling: Unl
Heat Index: 44°   Visibility: 10mi
Dew Point: 43°   Wind: 3mph
Humidity: 96%   Direction: 310°NW
Pressure: 30.03"   Gusts: NA
Location:  30.8443°N, 88.5703°W
Report Text: KMOB 310556Z AUTO 31003KT 10SM CLR 07/06 A3003 RMK AO2 SLP168 T00670061 10150 20067 402220067 57003
Loading
Personal Weather Stations






























Interactive Weather Map
Tropical Storm Tracking
New forecast layout! Learn more

10-Day Weather Forecast

Advertisements
Track Severe Weather on mobile